Bay View, Wisconsin
Current Conditions -  °F | °C
As of 8:52 AM on Friday 24 Oct 2014 (Local Time) from KMKE Reporting Station
Haze Haze  
Wind Chill: 50°   Ceiling: 600
Heat Index: 50°   Visibility: 6mi
Dew Point: 47°   Wind: 6mph
Humidity: 89%   Direction: 290°WNW
Pressure: 30.05"   Gusts: NA
Location:  42.9716°N, 87.9016°W
Report Text: KMKE 241352Z 29005KT 6SM BR OVC006 10/08 A3005 RMK AO2 SLP180 T01000083
Loading
Personal Weather Stations






























Interactive Weather Map
Tropical Storm Tracking
New forecast layout! Learn more

10-Day Weather Forecast

Advertisements
Track Severe Weather on mobile